createdAt,value
2023-01-22T00:00:22.243Z,101981.72
2023-01-22T00:02:49.996Z,101986.94
2023-01-22T00:05:17.774Z,101986.16
2023-01-22T00:07:45.478Z,101995.66
2023-01-22T00:10:13.253Z,101984.31
2023-01-22T00:12:41.141Z,101988.75
2023-01-22T00:15:10.914Z,101993.16
2023-01-22T00:17:38.711Z,101987.94
2023-01-22T00:20:07.637Z,101988.84
2023-01-22T00:22:35.207Z,101989.75
2023-01-22T00:25:02.753Z,101987.22
2023-01-22T00:27:30.325Z,101995.06
2023-01-22T00:30:01.069Z,101986.41
2023-01-22T00:32:30.002Z,101986.34
2023-01-22T00:34:57.498Z,101989.84
2023-01-22T00:37:26.189Z,101992.56
2023-01-22T00:39:53.847Z,101987.31
2023-01-22T00:42:21.906Z,101990.03
2023-01-22T00:44:49.427Z,101984.72
2023-01-22T00:47:17.322Z,101987.44
2023-01-22T00:49:46.203Z,101983.09
2023-01-22T00:52:13.792Z,101990.13
2023-01-22T00:54:41.952Z,101982.31
2023-01-22T00:57:09.569Z,101989.31
2023-01-22T00:59:37.127Z,101986.78
2023-01-22T01:02:06.562Z,101991.22
2023-01-22T01:04:34.230Z,101993.00
2023-01-22T01:07:03.151Z,101993.00
2023-01-22T01:09:30.814Z,101992.22
2023-01-22T01:11:59.131Z,101985.28
2023-01-22T01:14:26.871Z,101986.16
2023-01-22T01:16:54.731Z,101984.47
2023-01-22T01:19:23.235Z,101979.25
2023-01-22T01:21:51.724Z,101980.13
2023-01-22T01:24:20.652Z,101982.75
2023-01-22T01:26:48.621Z,101983.66
2023-01-22T01:29:16.200Z,101978.41
2023-01-22T01:31:43.837Z,101986.34
2023-01-22T01:34:11.476Z,101983.66
2023-01-22T01:36:54.284Z,101987.19
2023-01-22T01:39:23.453Z,101986.34
2023-01-22T01:41:51.306Z,101984.56
2023-01-22T01:44:21.165Z,101983.66
2023-01-22T01:46:51.090Z,101992.41
2023-01-22T01:49:28.773Z,101989.88
2023-01-22T01:51:58.942Z,101985.47
2023-01-22T01:54:29.531Z,101986.34
2023-01-22T01:57:01.443Z,101991.56
2023-01-22T01:59:33.408Z,102000.34
2023-01-22T02:02:03.330Z,101992.50
2023-01-22T02:04:31.207Z,101989.88
2023-01-22T02:06:58.892Z,101995.00
2023-01-22T02:09:28.537Z,101995.00
2023-01-22T02:11:56.208Z,101996.81
2023-01-22T02:14:27.985Z,101995.91
2023-01-22T02:17:02.551Z,102007.25
2023-01-22T02:19:30.075Z,102004.53
2023-01-22T02:21:59.041Z,102008.97
2023-01-22T02:24:31.712Z,102000.25
2023-01-22T02:26:59.293Z,101998.53
2023-01-22T02:29:28.969Z,102003.75
2023-01-22T02:31:56.956Z,102002.03
2023-01-22T02:34:25.031Z,101990.69
2023-01-22T02:36:53.676Z,102004.53
2023-01-22T02:39:22.842Z,102002.84
2023-01-22T02:41:52.030Z,102000.16
2023-01-22T02:44:19.790Z,102009.75
2023-01-22T02:46:47.339Z,102005.38
2023-01-22T02:49:15.047Z,102006.25
2023-01-22T02:51:42.789Z,102006.25
2023-01-22T02:54:10.681Z,102003.66
2023-01-22T02:56:40.474Z,102002.75
2023-01-22T02:59:09.809Z,102007.97
2023-01-22T03:01:37.499Z,102008.78
2023-01-22T03:04:10.783Z,102008.78
2023-01-22T03:06:40.983Z,102007.06
2023-01-22T03:09:10.880Z,102005.28
2023-01-22T03:11:42.108Z,102001.81
2023-01-22T03:14:32.028Z,102000.94
2023-01-22T03:17:17.857Z,101996.59
2023-01-22T03:20:03.198Z,102002.66
2023-01-22T03:22:31.196Z,101992.22
2023-01-22T03:25:00.482Z,101995.63
2023-01-22T03:27:33.042Z,101987.00
2023-01-22T03:30:00.745Z,101993.00
2023-01-22T03:32:33.438Z,101983.38
2023-01-22T03:35:01.786Z,101989.50
2023-01-22T03:37:44.323Z,101991.31
2023-01-22T03:40:12.680Z,101988.72
2023-01-22T03:42:41.943Z,101991.31
2023-01-22T03:45:10.571Z,101987.78
2023-01-22T03:47:38.873Z,101987.78
2023-01-22T03:50:20.393Z,101998.31
2023-01-22T03:52:48.053Z,101997.44
2023-01-22T03:55:16.891Z,102005.28
2023-01-22T03:57:46.099Z,102004.38
2023-01-22T04:00:15.463Z,102008.78
2023-01-22T04:02:44.040Z,102010.50
2023-01-22T04:05:20.341Z,102007.06
2023-01-22T04:07:50.523Z,102010.59
2023-01-22T04:10:20.837Z,102013.22
2023-01-22T04:12:50.431Z,102011.47
2023-01-22T04:15:21.347Z,102004.44
2023-01-22T04:17:50.613Z,102009.66
2023-01-22T04:20:35.894Z,102018.44
2023-01-22T04:23:19.634Z,102021.84
2023-01-22T04:25:48.853Z,102023.56
2023-01-22T04:28:18.367Z,102022.72
2023-01-22T04:30:51.757Z,102027.94
2023-01-22T04:33:37.027Z,102031.50
2023-01-22T04:36:11.645Z,102024.44
2023-01-22T04:38:39.193Z,102033.09
2023-01-22T04:41:07.179Z,102046.97
2023-01-22T04:43:36.109Z,102031.28
2023-01-22T04:46:04.221Z,102031.28
2023-01-22T04:48:33.452Z,102029.56
2023-01-22T04:51:01.237Z,102043.47
2023-01-22T04:53:31.223Z,102033.00
2023-01-22T04:55:58.913Z,102039.13
2023-01-22T04:58:27.348Z,102037.22
2023-01-22T05:00:58.715Z,102039.03
2023-01-22T05:03:26.393Z,102047.75
2023-01-22T05:05:54.279Z,102042.53
2023-01-22T05:08:21.926Z,102052.09
2023-01-22T05:10:49.555Z,102047.66
2023-01-22T05:13:21.618Z,102039.81
2023-01-22T05:15:49.270Z,102042.38
2023-01-22T05:18:19.326Z,102050.19
2023-01-22T05:20:52.165Z,102052.72
2023-01-22T05:23:21.807Z,102055.31
2023-01-22T05:25:50.077Z,102057.13
2023-01-22T05:28:22.418Z,102064.94
2023-01-22T05:31:19.335Z,102070.16
2023-01-22T05:34:05.831Z,102069.19
2023-01-22T05:36:33.465Z,102071.78
2023-01-22T05:39:06.961Z,102066.56
2023-01-22T05:41:35.656Z,102071.78
2023-01-22T05:44:03.398Z,102074.31
2023-01-22T05:46:31.015Z,102070.91
2023-01-22T05:49:12.120Z,102070.91
2023-01-22T05:51:39.755Z,102082.13
2023-01-22T05:54:07.377Z,102084.75
2023-01-22T05:56:37.857Z,102094.28
2023-01-22T05:59:05.480Z,102090.88
2023-01-22T06:01:33.035Z,102098.69
2023-01-22T06:04:00.617Z,102098.69
2023-01-22T06:06:29.557Z,102103.91
2023-01-22T06:08:57.481Z,102104.84
2023-01-22T06:11:29.922Z,102098.69
2023-01-22T06:13:57.606Z,102106.63
2023-01-22T06:16:25.162Z,102104.84
2023-01-22T06:19:06.459Z,102099.53
2023-01-22T06:21:43.693Z,102107.47
2023-01-22T06:24:12.531Z,102110.06
2023-01-22T06:26:40.149Z,102104.84
2023-01-22T06:29:10.195Z,102112.69
2023-01-22T06:31:39.840Z,102116.19
2023-01-22T06:34:09.814Z,102110.97
2023-01-22T06:36:37.520Z,102117.06
2023-01-22T06:39:07.494Z,102121.41
2023-01-22T06:41:45.474Z,102119.69
2023-01-22T06:44:16.230Z,102116.19
2023-01-22T06:46:43.791Z,102131.16
2023-01-22T06:49:18.850Z,102127.63
2023-01-22T06:51:46.372Z,102128.44
2023-01-22T06:54:16.244Z,102131.94
2023-01-22T06:56:44.181Z,102133.78
2023-01-22T06:59:13.783Z,102134.66
2023-01-22T07:01:42.079Z,102137.28
2023-01-22T07:04:10.802Z,102141.59
2023-01-22T07:06:38.289Z,102145.13
2023-01-22T07:09:05.808Z,102139.06
2023-01-22T07:11:34.661Z,102138.16
2023-01-22T07:14:02.166Z,102140.78
2023-01-22T07:16:29.698Z,102144.38
2023-01-22T07:18:57.244Z,102149.63
2023-01-22T07:21:24.824Z,102145.31
2023-01-22T07:23:52.472Z,102148.03
2023-01-22T07:26:20.019Z,102154.03
2023-01-22T07:28:48.874Z,102150.66
2023-01-22T07:31:16.398Z,102155.75
2023-01-22T07:33:43.934Z,102153.25
2023-01-22T07:36:11.499Z,102155.94
2023-01-22T07:38:39.026Z,102171.59
2023-01-22T07:41:20.286Z,102163.78
2023-01-22T07:43:53.580Z,102175.16
2023-01-22T07:46:21.873Z,102171.72
2023-01-22T07:48:49.420Z,102180.47
2023-01-22T07:51:17.529Z,102176.94
2023-01-22T07:53:45.143Z,102181.47
2023-01-22T07:56:12.980Z,102181.47
2023-01-22T07:58:41.200Z,102188.47
2023-01-22T08:01:11.114Z,102186.78
2023-01-22T08:03:39.120Z,102192.81
2023-01-22T08:06:09.490Z,102190.28
2023-01-22T08:08:37.115Z,102199.03
2023-01-22T08:11:05.186Z,102201.63
2023-01-22T08:13:32.749Z,102209.56
2023-01-22T08:16:00.345Z,102205.28
2023-01-22T08:18:29.752Z,102199.13
2023-01-22T08:21:00.600Z,102209.56
2023-01-22T08:23:28.440Z,102203.56
2023-01-22T08:25:59.508Z,102204.56
2023-01-22T08:28:27.408Z,102206.28
2023-01-22T08:30:58.726Z,102208.06
2023-01-22T08:33:27.085Z,102209.97
2023-01-22T08:35:55.990Z,102210.88
2023-01-22T08:38:23.687Z,102213.59
2023-01-22T08:40:51.751Z,102209.25
2023-01-22T08:43:19.842Z,102220.84
2023-01-22T08:45:49.772Z,102221.75
2023-01-22T08:48:17.468Z,102220.13
2023-01-22T08:50:45.026Z,102222.03
2023-01-22T08:53:13.945Z,102229.94
2023-01-22T08:55:41.675Z,102230.06
2023-01-22T08:58:10.463Z,102231.97
2023-01-22T09:00:38.112Z,102231.16
2023-01-22T09:03:05.618Z,102231.34
2023-01-22T09:05:33.114Z,102234.88
2023-01-22T09:08:00.612Z,102244.63
2023-01-22T09:10:29.506Z,102243.00
2023-01-22T09:12:59.690Z,102247.53
2023-01-22T09:15:27.379Z,102248.44
2023-01-22T09:17:54.890Z,102244.19
2023-01-22T09:20:22.671Z,102246.13
2023-01-22T09:22:50.811Z,102254.84
2023-01-22T09:25:18.471Z,102259.28
2023-01-22T09:27:47.332Z,102261.91
2023-01-22T09:30:15.464Z,102264.63
2023-01-22T09:32:43.016Z,102259.38
2023-01-22T09:35:11.196Z,102269.03
2023-01-22T09:37:38.705Z,102277.75
2023-01-22T09:40:07.363Z,102270.84
2023-01-22T09:42:38.150Z,102278.78
2023-01-22T09:45:12.511Z,102272.63
2023-01-22T09:47:44.330Z,102285.00
2023-01-22T09:50:18.963Z,102282.50
2023-01-22T09:52:47.283Z,102276.53
2023-01-22T09:55:17.300Z,102287.09
2023-01-22T09:57:47.621Z,102288.09
2023-01-22T10:00:20.517Z,102293.41
2023-01-22T10:02:51.949Z,102281.28
2023-01-22T10:05:28.794Z,102290.91
2023-01-22T10:08:01.548Z,102289.19
2023-01-22T10:10:30.261Z,102286.66
2023-01-22T10:13:14.379Z,102284.16
2023-01-22T10:15:43.486Z,102284.16
2023-01-22T10:18:25.555Z,102285.25
2023-01-22T10:20:54.479Z,102286.97
2023-01-22T10:23:24.096Z,102288.78
2023-01-22T10:25:56.381Z,102286.28
2023-01-22T10:28:26.841Z,102296.81
2023-01-22T10:30:58.883Z,102295.22
2023-01-22T10:33:28.551Z,102292.59
2023-01-22T10:35:58.006Z,102293.50
2023-01-22T10:38:28.463Z,102290.88
2023-01-22T10:40:58.437Z,102290.97
2023-01-22T10:43:33.785Z,102291.88
2023-01-22T10:46:07.035Z,102291.09
2023-01-22T10:48:35.230Z,102288.56
2023-01-22T10:51:13.310Z,102286.84
2023-01-22T10:53:47.007Z,102273.06
2023-01-22T10:56:25.549Z,102290.66
2023-01-22T10:58:53.306Z,102277.66
2023-01-22T11:01:29.674Z,102276.94
2023-01-22T11:03:57.249Z,102275.34
2023-01-22T11:06:28.399Z,102285.91
2023-01-22T11:09:01.124Z,102285.09
2023-01-22T11:11:33.761Z,102281.66
2023-01-22T11:14:05.349Z,102286.06
2023-01-22T11:16:38.047Z,102287.09
2023-01-22T11:19:08.234Z,102287.16
2023-01-22T11:21:39.128Z,102283.75
2023-01-22T11:24:13.185Z,102282.03
2023-01-22T11:27:19.549Z,102280.44
2023-01-22T11:30:18.613Z,102282.22
2023-01-22T11:32:57.427Z,102284.03
2023-01-22T11:35:29.235Z,102279.81
2023-01-22T11:38:17.025Z,102275.56
2023-01-22T11:41:10.611Z,102280.78
2023-01-22T11:44:01.368Z,102273.94
2023-01-22T11:46:43.415Z,102278.38
2023-01-22T11:49:26.202Z,102279.25
2023-01-22T11:52:07.337Z,102271.50
2023-01-22T11:54:48.963Z,102274.22
2023-01-22T11:57:21.824Z,102274.22
2023-01-22T12:00:04.561Z,102280.44
2023-01-22T12:02:47.671Z,102278.56
2023-01-22T12:05:31.914Z,102282.25
2023-01-22T12:08:16.577Z,102281.44
2023-01-22T12:11:08.838Z,102274.59
2023-01-22T12:13:58.634Z,102271.16
2023-01-22T12:16:30.750Z,102283.34
2023-01-22T12:19:23.621Z,102281.63
2023-01-22T12:22:01.575Z,102275.50
2023-01-22T12:24:34.177Z,102278.22
2023-01-22T12:27:06.295Z,102280.84
2023-01-22T12:29:37.817Z,102285.19
2023-01-22T12:32:10.897Z,102290.47
2023-01-22T12:34:48.038Z,102287.94
2023-01-22T12:37:26.238Z,102297.63
2023-01-22T12:40:16.876Z,102290.66
2023-01-22T12:42:50.537Z,102289.78
2023-01-22T12:45:23.714Z,102290.66
2023-01-22T12:47:57.995Z,102286.34
2023-01-22T12:50:27.503Z,102296.81
2023-01-22T12:53:01.121Z,102295.00
2023-01-22T12:55:34.872Z,102298.53
2023-01-22T12:58:04.233Z,102297.63
2023-01-22T13:00:35.517Z,102296.72
2023-01-22T13:03:31.117Z,102295.00
2023-01-22T13:06:00.651Z,102305.56
2023-01-22T13:08:41.303Z,102312.53
2023-01-22T13:11:11.598Z,102309.00
2023-01-22T13:13:46.707Z,102307.28
2023-01-22T13:16:23.491Z,102311.59
2023-01-22T13:18:52.680Z,102310.72
2023-01-22T13:21:26.375Z,102306.38
2023-01-22T13:24:00.041Z,102310.72
2023-01-22T13:26:30.446Z,102312.44
2023-01-22T13:29:00.014Z,102308.09
2023-01-22T13:31:28.223Z,102306.28
2023-01-22T13:33:59.013Z,102311.50
2023-01-22T13:36:27.349Z,102306.19
2023-01-22T13:38:58.664Z,102312.34
2023-01-22T13:41:30.070Z,102301.78
2023-01-22T13:43:58.149Z,102311.34
2023-01-22T13:46:28.756Z,102305.19
2023-01-22T13:49:07.991Z,102307.72
2023-01-22T13:51:36.658Z,102304.19
2023-01-22T13:54:08.189Z,102292.84
2023-01-22T13:56:35.846Z,102298.06
2023-01-22T13:59:08.891Z,102304.09
2023-01-22T14:01:38.177Z,102304.94
2023-01-22T14:04:07.298Z,102301.38
2023-01-22T14:06:45.032Z,102306.63
2023-01-22T14:09:14.103Z,102305.63
2023-01-22T14:11:41.942Z,102307.34
2023-01-22T14:14:17.537Z,102311.75
2023-01-22T14:16:45.299Z,102311.59
2023-01-22T14:19:12.911Z,102307.25
2023-01-22T14:21:40.690Z,102310.66
2023-01-22T14:24:09.344Z,102305.44
2023-01-22T14:26:38.461Z,102310.66
2023-01-22T14:29:06.185Z,102315.91
2023-01-22T14:31:33.766Z,102309.69
2023-01-22T14:34:01.331Z,102321.88
2023-01-22T14:36:28.910Z,102320.94
2023-01-22T14:38:57.783Z,102321.75
2023-01-22T14:41:25.363Z,102333.03
2023-01-22T14:43:54.230Z,102332.94
2023-01-22T14:46:21.771Z,102343.41
2023-01-22T14:48:49.352Z,102339.69
2023-01-22T14:51:17.000Z,102342.22
2023-01-22T14:53:45.180Z,102339.59
2023-01-22T14:56:13.040Z,102357.00
2023-01-22T14:58:40.580Z,102354.28
2023-01-22T15:01:20.666Z,102357.75
2023-01-22T15:03:48.288Z,102356.72
2023-01-22T15:06:16.007Z,102364.47
2023-01-22T15:08:43.540Z,102362.66
2023-01-22T15:11:11.073Z,102362.66
2023-01-22T15:13:38.814Z,102367.69
2023-01-22T15:16:08.117Z,102374.75
2023-01-22T15:18:38.223Z,102371.13
2023-01-22T15:21:06.582Z,102374.56
2023-01-22T15:23:35.509Z,102367.50
2023-01-22T15:26:05.677Z,102370.94
2023-01-22T15:28:33.257Z,102376.19
2023-01-22T15:31:07.474Z,102383.00
2023-01-22T15:33:35.417Z,102382.94
2023-01-22T15:36:05.220Z,102391.66
2023-01-22T15:38:32.757Z,102387.97
2023-01-22T15:41:05.073Z,102386.13
2023-01-22T15:43:32.592Z,102390.47
2023-01-22T15:46:00.389Z,102393.88
2023-01-22T15:48:28.043Z,102388.66
2023-01-22T15:50:55.586Z,102390.28
2023-01-22T15:53:25.532Z,102402.44
2023-01-22T15:55:53.439Z,102399.72
2023-01-22T15:58:20.967Z,102397.00
2023-01-22T16:00:48.502Z,102396.13
2023-01-22T16:03:16.230Z,102396.91
2023-01-22T16:05:43.777Z,102399.53
2023-01-22T16:08:11.401Z,102399.53
2023-01-22T16:10:40.447Z,102397.72
2023-01-22T16:13:08.280Z,102402.94
2023-01-22T16:15:35.862Z,102401.94
2023-01-22T16:18:03.387Z,102405.44
2023-01-22T16:20:30.949Z,102408.00
2023-01-22T16:22:58.592Z,102410.59
2023-01-22T16:25:26.207Z,102414.00
2023-01-22T16:27:55.066Z,102414.81
2023-01-22T16:30:22.920Z,102414.81
2023-01-22T16:32:53.371Z,102422.66
2023-01-22T16:35:20.903Z,102435.72
2023-01-22T16:37:48.495Z,102432.22
2023-01-22T16:40:17.956Z,102436.56
2023-01-22T16:43:01.382Z,102434.72
2023-01-22T16:45:28.960Z,102437.34
2023-01-22T16:47:56.674Z,102439.84
2023-01-22T16:50:24.222Z,102445.19
2023-01-22T16:52:51.773Z,102449.53
2023-01-22T16:55:19.550Z,102446.00
2023-01-22T16:57:47.120Z,102448.63
2023-01-22T17:00:17.094Z,102454.66
2023-01-22T17:02:44.907Z,102450.31
2023-01-22T17:05:13.152Z,102444.97
2023-01-22T17:07:40.738Z,102450.22
2023-01-22T17:10:09.403Z,102450.22
2023-01-22T17:12:37.541Z,102449.22
2023-01-22T17:15:08.727Z,102443.97
2023-01-22T17:17:37.676Z,102450.09
2023-01-22T17:20:06.231Z,102447.50
2023-01-22T17:22:35.830Z,102441.38
2023-01-22T17:25:03.721Z,102441.25
2023-01-22T17:27:31.578Z,102448.31
2023-01-22T17:29:59.141Z,102445.69
2023-01-22T17:32:26.901Z,102460.50
2023-01-22T17:34:56.036Z,102461.28
2023-01-22T17:37:23.576Z,102460.28
2023-01-22T17:39:51.428Z,102465.63
2023-01-22T17:42:20.931Z,102459.47
2023-01-22T17:44:48.848Z,102460.28
2023-01-22T17:47:16.394Z,102474.25
2023-01-22T17:49:43.941Z,102469.91
2023-01-22T17:52:12.847Z,102470.75
2023-01-22T17:54:41.065Z,102474.25
2023-01-22T17:57:09.777Z,102473.47
2023-01-22T17:59:37.761Z,102474.25
2023-01-22T18:02:05.305Z,102487.31
2023-01-22T18:04:34.461Z,102487.31
2023-01-22T18:07:01.981Z,102490.84
2023-01-22T18:09:31.159Z,102491.66
2023-01-22T18:12:00.368Z,102501.28
2023-01-22T18:14:33.782Z,102493.34
2023-01-22T18:17:02.374Z,102496.88
2023-01-22T18:19:29.921Z,102491.66
2023-01-22T18:21:57.566Z,102495.97
2023-01-22T18:24:26.414Z,102488.13
2023-01-22T18:26:57.792Z,102492.44
2023-01-22T18:29:26.590Z,102487.22
2023-01-22T18:31:54.347Z,102492.44
2023-01-22T18:34:21.925Z,102493.28
2023-01-22T18:36:49.511Z,102508.03
2023-01-22T18:39:19.178Z,102505.41
2023-01-22T18:41:47.552Z,102516.69
2023-01-22T18:44:19.315Z,102518.50
2023-01-22T18:46:51.656Z,102511.47
2023-01-22T18:49:19.949Z,102518.59
2023-01-22T18:51:48.144Z,102521.22
2023-01-22T18:54:17.230Z,102522.03
2023-01-22T18:56:45.378Z,102518.50
2023-01-22T18:59:13.306Z,102517.59
2023-01-22T19:01:44.358Z,102520.22
2023-01-22T19:04:17.837Z,102520.22
2023-01-22T19:06:48.072Z,102526.34
2023-01-22T19:09:16.694Z,102516.69
2023-01-22T19:11:47.035Z,102521.94
2023-01-22T19:14:17.340Z,102514.97
2023-01-22T19:16:50.831Z,102521.00
2023-01-22T19:19:19.356Z,102527.16
2023-01-22T19:21:49.144Z,102531.44
2023-01-22T19:24:22.239Z,102523.50
2023-01-22T19:26:51.287Z,102531.44
2023-01-22T19:29:19.756Z,102531.44
2023-01-22T19:31:51.954Z,102531.44
2023-01-22T19:34:23.596Z,102531.44
2023-01-22T19:36:52.834Z,102532.38
2023-01-22T19:39:21.232Z,102537.63
2023-01-22T19:41:49.080Z,102530.66
2023-01-22T19:44:16.613Z,102538.50
2023-01-22T19:46:44.314Z,102533.16
2023-01-22T19:49:14.157Z,102541.00
2023-01-22T19:51:41.768Z,102542.84
2023-01-22T19:54:10.202Z,102544.53
2023-01-22T19:56:39.336Z,102547.13
2023-01-22T19:59:08.745Z,102543.63
2023-01-22T20:01:37.378Z,102541.91
2023-01-22T20:04:08.805Z,102544.53
2023-01-22T20:06:37.662Z,102545.47
2023-01-22T20:09:06.078Z,102545.34
2023-01-22T20:11:33.809Z,102552.38
2023-01-22T20:14:01.356Z,102560.22
2023-01-22T20:16:30.334Z,102563.66
2023-01-22T20:18:58.728Z,102568.06
2023-01-22T20:21:27.647Z,102572.38
2023-01-22T20:23:56.636Z,102572.38
2023-01-22T20:26:24.615Z,102572.38
2023-01-22T20:28:52.436Z,102582.06
2023-01-22T20:31:23.422Z,102575.78
2023-01-22T20:33:52.372Z,102579.34
2023-01-22T20:36:21.475Z,102576.72
2023-01-22T20:38:52.692Z,102577.63
2023-01-22T20:41:23.341Z,102579.34
2023-01-22T20:43:51.552Z,102581.94
2023-01-22T20:46:21.478Z,102588.06
2023-01-22T20:48:49.451Z,102596.72
2023-01-22T20:51:19.882Z,102587.19
2023-01-22T20:53:48.258Z,102593.31
2023-01-22T20:56:23.609Z,102588.88
2023-01-22T20:58:57.084Z,102596.72
2023-01-22T21:01:25.020Z,102591.47
2023-01-22T21:03:52.915Z,102594.09
2023-01-22T21:06:21.121Z,102600.25
2023-01-22T21:08:51.263Z,102601.03
2023-01-22T21:11:20.781Z,102608.00
2023-01-22T21:13:51.969Z,102603.53
2023-01-22T21:16:26.130Z,102605.38
2023-01-22T21:18:55.497Z,102597.53
2023-01-22T21:21:23.135Z,102591.41
2023-01-22T21:23:52.461Z,102586.19
2023-01-22T21:26:22.838Z,102588.78
2023-01-22T21:28:54.587Z,102586.97
2023-01-22T21:31:23.176Z,102591.41
2023-01-22T21:33:52.535Z,102603.53
2023-01-22T21:36:20.460Z,102597.41
2023-01-22T21:38:48.391Z,102600.94
2023-01-22T21:41:17.485Z,102608.78
2023-01-22T21:44:05.079Z,102601.75
2023-01-22T21:46:36.505Z,102597.41
2023-01-22T21:49:16.208Z,102597.31
2023-01-22T21:51:45.913Z,102610.50
2023-01-22T21:54:17.276Z,102611.28
2023-01-22T21:56:45.008Z,102613.91
2023-01-22T21:59:12.649Z,102610.50
2023-01-22T22:01:41.744Z,102620.94
2023-01-22T22:04:10.886Z,102617.44
2023-01-22T22:06:39.622Z,102616.63
2023-01-22T22:09:11.421Z,102619.13
2023-01-22T22:11:38.929Z,102614.81
2023-01-22T22:14:08.472Z,102613.00
2023-01-22T22:16:37.553Z,102624.34
2023-01-22T22:19:07.473Z,102627.06
2023-01-22T22:21:35.190Z,102623.47
2023-01-22T22:24:05.533Z,102622.66
2023-01-22T22:26:33.342Z,102624.34
2023-01-22T22:29:00.908Z,102627.91
2023-01-22T22:31:28.495Z,102627.06
2023-01-22T22:33:57.388Z,102632.19
2023-01-22T22:36:27.849Z,102632.19
2023-01-22T22:38:55.591Z,102631.41
2023-01-22T22:41:24.904Z,102626.97
2023-01-22T22:43:53.939Z,102630.63
2023-01-22T22:46:23.502Z,102635.75
2023-01-22T22:48:52.127Z,102636.63
2023-01-22T22:51:22.813Z,102630.50
2023-01-22T22:53:55.049Z,102636.63
2023-01-22T22:56:23.416Z,102637.53
2023-01-22T22:58:51.826Z,102644.47
2023-01-22T23:01:21.586Z,102637.44
2023-01-22T23:03:49.602Z,102646.19
2023-01-22T23:06:20.888Z,102647.09
2023-01-22T23:08:52.180Z,102640.84
2023-01-22T23:11:22.952Z,102646.97
2023-01-22T23:13:50.945Z,102648.69
2023-01-22T23:16:20.355Z,102652.22
2023-01-22T23:18:49.431Z,102657.44
2023-01-22T23:21:20.730Z,102670.50
2023-01-22T23:23:48.689Z,102665.28
2023-01-22T23:26:18.378Z,102670.50
2023-01-22T23:28:48.445Z,102671.41
2023-01-22T23:31:17.967Z,102675.75
2023-01-22T23:33:45.537Z,102673.91
2023-01-22T23:36:17.041Z,102681.88
2023-01-22T23:38:44.726Z,102685.41
2023-01-22T23:41:14.822Z,102687.09
2023-01-22T23:43:43.496Z,102674.03
2023-01-22T23:46:15.268Z,102682.81
2023-01-22T23:48:42.985Z,102684.47
2023-01-22T23:51:12.541Z,102692.31
2023-01-22T23:53:42.079Z,102693.16
2023-01-22T23:56:11.385Z,102692.31
2023-01-22T23:58:39.170Z,102689.72
